createdAt,value
2023-06-14T00:02:28.068Z,16.29
2023-06-14T00:05:18.621Z,16.24
2023-06-14T00:08:09.410Z,16.24
2023-06-14T00:10:57.975Z,16.19
2023-06-14T00:13:47.135Z,16.16
2023-06-14T00:16:36.852Z,16.12
2023-06-14T00:19:29.009Z,16.05
2023-06-14T00:22:19.960Z,15.97
2023-06-14T00:25:28.127Z,15.92
2023-06-14T00:28:17.888Z,15.91
2023-06-14T00:31:06.937Z,15.86
2023-06-14T00:33:55.529Z,15.80
2023-06-14T00:36:45.150Z,15.80
2023-06-14T00:39:35.685Z,15.74
2023-06-14T00:42:28.848Z,15.71
2023-06-14T00:45:18.974Z,15.69
2023-06-14T00:48:11.585Z,15.61
2023-06-14T00:51:03.412Z,15.57
2023-06-14T00:53:54.207Z,15.49
2023-06-14T00:56:46.617Z,15.41
2023-06-14T00:59:40.406Z,15.32
2023-06-14T01:02:29.878Z,15.29
2023-06-14T01:05:20.263Z,15.25
2023-06-14T01:08:25.346Z,15.21
2023-06-14T01:11:21.455Z,15.11
2023-06-14T01:14:15.813Z,15.02
2023-06-14T01:17:06.996Z,14.94
2023-06-14T01:19:59.272Z,14.92
2023-06-14T01:22:55.717Z,14.87
2023-06-14T01:25:45.737Z,14.83
2023-06-14T01:28:38.429Z,14.81
2023-06-14T01:31:31.790Z,14.74
2023-06-14T01:34:21.851Z,14.71
2023-06-14T01:37:13.203Z,14.63
2023-06-14T01:40:06.454Z,14.60
2023-06-14T01:42:56.352Z,14.58
2023-06-14T01:45:50.162Z,14.46
2023-06-14T01:48:39.941Z,14.45
2023-06-14T01:51:34.583Z,14.38
2023-06-14T01:54:27.101Z,14.32
2023-06-14T01:57:17.666Z,14.29
2023-06-14T02:00:12.389Z,14.21
2023-06-14T02:03:02.597Z,14.15
2023-06-14T02:05:50.573Z,14.18
2023-06-14T02:08:45.317Z,14.33
2023-06-14T02:11:34.025Z,14.40
2023-06-14T02:14:30.429Z,14.36
2023-06-14T02:17:18.639Z,14.45
2023-06-14T02:20:11.091Z,14.29
2023-06-14T02:23:04.002Z,14.21
2023-06-14T02:25:52.495Z,14.11
2023-06-14T02:28:40.943Z,13.98
2023-06-14T02:31:31.614Z,13.87
2023-06-14T02:34:21.477Z,13.83
2023-06-14T02:37:12.204Z,13.78
2023-06-14T02:40:02.174Z,13.65
2023-06-14T02:42:51.069Z,13.74
2023-06-14T02:45:40.026Z,13.83
2023-06-14T02:48:30.673Z,13.75
2023-06-14T02:51:19.389Z,13.72
2023-06-14T02:54:09.642Z,13.67
2023-06-14T02:57:00.367Z,13.57
2023-06-14T02:59:48.627Z,13.48
2023-06-14T03:02:43.888Z,13.55
2023-06-14T03:05:35.564Z,13.52
2023-06-14T03:08:28.603Z,13.44
2023-06-14T03:11:19.823Z,13.28
2023-06-14T03:14:10.123Z,13.23
2023-06-14T03:16:59.307Z,13.14
2023-06-14T03:19:47.977Z,13.07
2023-06-14T03:22:40.995Z,13.00
2023-06-14T03:25:31.459Z,12.99
2023-06-14T03:28:21.162Z,12.98
2023-06-14T03:31:10.248Z,12.95
2023-06-14T03:34:03.266Z,12.94
2023-06-14T03:36:53.268Z,12.90
2023-06-14T03:39:47.757Z,12.91
2023-06-14T03:42:39.060Z,12.88
2023-06-14T03:45:27.524Z,12.86
2023-06-14T03:48:16.470Z,12.87
2023-06-14T03:51:06.785Z,12.88
2023-06-14T03:54:30.216Z,12.84
2023-06-14T03:57:17.978Z,12.81
2023-06-14T04:00:08.966Z,12.81
2023-06-14T04:03:02.773Z,12.79
2023-06-14T04:05:52.826Z,12.78
2023-06-14T04:08:44.409Z,12.80
2023-06-14T04:11:36.616Z,12.80
2023-06-14T04:14:34.360Z,12.86
2023-06-14T04:17:30.270Z,12.90
2023-06-14T04:20:29.896Z,12.94
2023-06-14T04:23:25.466Z,12.97
2023-06-14T04:26:15.045Z,13.00
2023-06-14T04:29:03.807Z,13.04
2023-06-14T04:31:57.060Z,13.08
2023-06-14T04:34:46.012Z,13.12
2023-06-14T04:37:35.255Z,13.23
2023-06-14T04:40:26.096Z,13.24
2023-06-14T04:43:18.603Z,13.32
2023-06-14T04:46:10.970Z,13.35
2023-06-14T04:49:19.152Z,13.35
2023-06-14T04:52:12.119Z,13.40
2023-06-14T04:55:33.434Z,13.44
2023-06-14T04:58:21.609Z,13.56
2023-06-14T05:01:14.755Z,13.65
2023-06-14T05:04:05.526Z,13.67
2023-06-14T05:06:57.868Z,13.76
2023-06-14T05:09:48.065Z,13.84
2023-06-14T05:12:36.948Z,13.91
2023-06-14T05:15:30.304Z,14.01
2023-06-14T05:18:21.403Z,14.12
2023-06-14T05:21:10.562Z,14.21
2023-06-14T05:24:01.713Z,14.30
2023-06-14T05:33:01.332Z,14.47
2023-06-14T05:35:52.043Z,14.53
2023-06-14T05:38:41.189Z,14.59
2023-06-14T05:41:48.826Z,14.63
2023-06-14T05:44:39.083Z,14.68
2023-06-14T05:47:29.641Z,14.72
2023-06-14T05:50:18.464Z,14.82
2023-06-14T05:53:09.066Z,14.84
2023-06-14T05:55:58.793Z,14.89
2023-06-14T05:58:49.632Z,14.92
2023-06-14T06:01:45.948Z,15.01
2023-06-14T06:04:39.306Z,15.13
2023-06-14T06:07:38.127Z,15.23
2023-06-14T06:10:29.186Z,15.41
2023-06-14T06:13:17.994Z,15.68
2023-06-14T06:16:08.398Z,15.93
2023-06-14T06:19:00.101Z,16.27
2023-06-14T06:21:49.690Z,16.47
2023-06-14T06:24:38.454Z,16.73
2023-06-14T06:27:27.861Z,17.05
2023-06-14T06:30:26.162Z,17.38
2023-06-14T06:33:26.042Z,17.72
2023-06-14T06:36:16.908Z,18.02
2023-06-14T06:39:11.362Z,18.37
2023-06-14T06:42:00.538Z,18.65
2023-06-14T06:44:50.301Z,18.86
2023-06-14T06:47:39.051Z,19.19
2023-06-14T06:50:36.716Z,19.43
2023-06-14T06:53:39.197Z,19.57
2023-06-14T06:56:30.702Z,19.71
2023-06-14T06:59:22.320Z,19.79
2023-06-14T07:02:11.928Z,20.08
2023-06-14T07:05:07.696Z,19.90
2023-06-14T07:08:08.022Z,20.18
2023-06-14T07:10:57.226Z,20.41
2023-06-14T07:13:49.751Z,20.89
2023-06-14T07:16:41.262Z,21.22
2023-06-14T07:19:33.737Z,21.04
2023-06-14T07:22:24.575Z,21.81
2023-06-14T07:25:16.930Z,22.12
2023-06-14T07:28:13.306Z,22.57
2023-06-14T07:31:09.579Z,22.49
2023-06-14T07:33:57.878Z,22.68
2023-06-14T07:36:50.451Z,22.63
2023-06-14T07:39:38.961Z,22.55
2023-06-14T07:42:29.126Z,22.75
2023-06-14T07:45:21.150Z,23.05
2023-06-14T07:48:10.491Z,22.96
2023-06-14T07:50:58.670Z,23.09
2023-06-14T07:53:47.774Z,23.56
2023-06-14T07:56:38.216Z,24.22
2023-06-14T07:59:30.143Z,23.99
2023-06-14T08:02:19.454Z,23.88
2023-06-14T08:05:14.134Z,24.21
2023-06-14T08:08:04.424Z,24.66
2023-06-14T08:10:55.403Z,25.21
2023-06-14T08:13:46.964Z,25.53
2023-06-14T08:16:37.909Z,25.74
2023-06-14T08:19:30.172Z,25.79
2023-06-14T08:22:22.137Z,25.98
2023-06-14T08:25:16.722Z,26.17
2023-06-14T08:28:07.610Z,26.43
2023-06-14T08:34:05.533Z,26.28
2023-06-14T08:36:57.451Z,25.42
2023-06-14T08:39:52.443Z,25.66
2023-06-14T08:42:49.430Z,25.89
2023-06-14T08:45:53.492Z,25.89
2023-06-14T08:48:43.559Z,26.16
2023-06-14T08:51:46.019Z,26.66
2023-06-14T08:54:47.350Z,27.18
2023-06-14T08:57:40.805Z,25.46
2023-06-14T09:00:49.940Z,25.67
2023-06-14T09:03:47.279Z,25.70
2023-06-14T09:06:55.976Z,25.57
2023-06-14T09:10:07.137Z,26.03
2023-06-14T09:12:57.241Z,25.80
2023-06-14T09:15:48.459Z,25.73
2023-06-14T09:19:00.204Z,26.33
2023-06-14T09:22:01.281Z,26.56
2023-06-14T09:24:51.082Z,26.40
2023-06-14T09:27:41.000Z,26.52
2023-06-14T09:30:33.003Z,26.48
2023-06-14T09:33:21.802Z,26.62
2023-06-14T09:36:21.733Z,26.73
2023-06-14T09:39:15.081Z,26.60
2023-06-14T09:42:04.531Z,26.37
2023-06-14T09:44:58.743Z,26.36
2023-06-14T09:48:04.286Z,26.37
2023-06-14T09:51:11.065Z,26.38
2023-06-14T09:54:05.656Z,26.37
2023-06-14T09:56:58.070Z,26.26
2023-06-14T09:59:58.142Z,26.16
2023-06-14T10:03:01.794Z,26.30
2023-06-14T10:06:04.654Z,25.51
2023-06-14T10:08:57.219Z,25.05
2023-06-14T10:11:50.621Z,25.00
2023-06-14T10:14:50.806Z,25.02
2023-06-14T10:17:56.964Z,24.67
2023-06-14T10:21:08.860Z,24.87
2023-06-14T10:24:12.875Z,24.76
2023-06-14T10:27:15.262Z,25.03
2023-06-14T10:30:16.232Z,25.32
2023-06-14T10:33:11.411Z,25.43
2023-06-14T10:36:43.267Z,25.51
2023-06-14T10:39:33.227Z,25.59
2023-06-14T10:42:23.993Z,25.84
2023-06-14T10:45:18.542Z,26.00
2023-06-14T10:48:09.019Z,26.13
2023-06-14T10:54:14.698Z,26.10
2023-06-14T10:57:02.807Z,26.27
2023-06-14T10:59:51.305Z,26.33
2023-06-14T11:03:31.707Z,26.51
2023-06-14T11:06:30.166Z,26.54
2023-06-14T11:10:15.337Z,26.49
2023-06-14T11:13:04.157Z,26.61
2023-06-14T11:16:08.957Z,26.66
2023-06-14T11:19:03.099Z,26.69
2023-06-14T11:21:52.477Z,26.82
2023-06-14T11:24:42.159Z,26.97
2023-06-14T11:27:32.268Z,26.84
2023-06-14T11:30:23.274Z,27.00
2023-06-14T11:33:14.160Z,27.19
2023-06-14T11:36:13.502Z,27.00
2023-06-14T11:39:17.915Z,26.80
2023-06-14T11:42:09.645Z,26.90
2023-06-14T11:45:07.893Z,27.01
2023-06-14T11:48:03.730Z,26.89
2023-06-14T11:50:54.201Z,26.66
2023-06-14T11:53:47.771Z,26.40
2023-06-14T11:56:52.279Z,26.44
2023-06-14T11:59:42.187Z,27.10
2023-06-14T12:02:35.723Z,27.51
2023-06-14T12:05:25.269Z,27.51
2023-06-14T12:08:23.595Z,27.38
2023-06-14T12:11:24.905Z,26.89
2023-06-14T12:14:14.163Z,27.13
2023-06-14T12:17:13.787Z,27.56
2023-06-14T12:20:15.689Z,27.79
2023-06-14T12:23:07.977Z,28.14
2023-06-14T12:26:06.186Z,28.10
2023-06-14T12:28:57.240Z,28.17
2023-06-14T12:31:47.545Z,28.33
2023-06-14T12:37:55.798Z,28.73
2023-06-14T12:40:44.997Z,29.27
2023-06-14T12:43:45.087Z,29.41
2023-06-14T12:46:37.487Z,29.83
2023-06-14T12:49:28.815Z,29.09
2023-06-14T12:52:20.756Z,29.12
2023-06-14T12:55:13.425Z,28.14
2023-06-14T12:58:02.372Z,28.26
2023-06-14T13:00:51.121Z,28.68
2023-06-14T13:03:43.434Z,29.13
2023-06-14T13:09:36.999Z,29.54
2023-06-14T13:12:26.766Z,29.57
2023-06-14T13:15:15.649Z,29.56
2023-06-14T13:18:04.483Z,29.52
2023-06-14T13:20:54.697Z,29.31
2023-06-14T13:23:50.978Z,29.03
2023-06-14T13:26:42.952Z,29.13
2023-06-14T13:29:32.511Z,29.14
2023-06-14T13:32:24.649Z,29.10
2023-06-14T13:35:13.657Z,29.19
2023-06-14T13:38:18.611Z,29.21
2023-06-14T13:41:09.820Z,29.41
2023-06-14T13:43:58.728Z,29.49
2023-06-14T13:46:50.767Z,29.82
2023-06-14T13:49:41.406Z,29.81
2023-06-14T13:52:32.377Z,29.54
2023-06-14T13:55:25.563Z,28.91
2023-06-14T13:58:42.517Z,28.38
2023-06-14T14:01:30.934Z,28.42
2023-06-14T14:04:21.368Z,28.53
2023-06-14T14:07:14.505Z,28.39
2023-06-14T14:10:08.213Z,28.47
2023-06-14T14:12:59.213Z,28.22
2023-06-14T14:15:48.721Z,25.32
2023-06-14T14:18:37.436Z,25.61
2023-06-14T14:21:26.141Z,25.15
2023-06-14T14:24:14.492Z,25.46
2023-06-14T14:27:06.857Z,26.75
2023-06-14T14:29:57.158Z,27.73
2023-06-14T14:32:49.442Z,28.62
2023-06-14T14:35:41.185Z,28.09
2023-06-14T14:38:30.085Z,28.73
2023-06-14T14:41:18.722Z,29.18
2023-06-14T14:44:18.306Z,29.46
2023-06-14T14:47:09.735Z,29.57
2023-06-14T14:49:59.459Z,29.71
2023-06-14T14:52:49.398Z,29.98
2023-06-14T14:58:41.194Z,30.01
2023-06-14T15:01:29.876Z,29.93
2023-06-14T15:04:23.500Z,29.75
2023-06-14T15:07:12.058Z,29.86
2023-06-14T15:10:03.259Z,29.92
2023-06-14T15:12:53.320Z,29.77
2023-06-14T15:15:43.736Z,29.75
2023-06-14T15:18:36.969Z,29.67
2023-06-14T15:21:32.417Z,29.50
2023-06-14T15:24:38.005Z,29.59
2023-06-14T15:27:33.301Z,30.06
2023-06-14T15:30:36.500Z,30.40
2023-06-14T15:33:24.931Z,30.66
2023-06-14T15:36:16.377Z,30.97
2023-06-14T15:39:06.572Z,31.23
2023-06-14T15:41:55.002Z,31.53
2023-06-14T15:44:44.250Z,31.90
2023-06-14T15:47:46.831Z,31.88
2023-06-14T15:50:38.702Z,31.83
2023-06-14T15:53:31.867Z,31.26
2023-06-14T15:56:22.228Z,31.15
2023-06-14T15:59:13.273Z,31.43
2023-06-14T16:02:04.273Z,31.82
2023-06-14T16:04:55.911Z,32.01
2023-06-14T16:07:47.668Z,32.04
2023-06-14T16:10:36.182Z,32.25
2023-06-14T16:13:27.294Z,32.34
2023-06-14T16:16:16.698Z,32.47
2023-06-14T16:19:22.315Z,32.68
2023-06-14T16:22:14.516Z,32.81
2023-06-14T16:25:07.952Z,32.98
2023-06-14T16:31:10.588Z,33.18
2023-06-14T16:34:14.507Z,32.90
2023-06-14T16:37:07.168Z,32.56
2023-06-14T16:39:57.471Z,32.37
2023-06-14T16:42:53.544Z,32.23
2023-06-14T16:45:42.678Z,32.02
2023-06-14T16:48:35.521Z,32.01
2023-06-14T16:51:25.050Z,31.98
2023-06-14T16:54:13.853Z,32.01
2023-06-14T16:57:02.960Z,32.04
2023-06-14T16:59:52.150Z,31.88
2023-06-14T17:02:41.009Z,31.84
2023-06-14T17:05:32.855Z,32.02
2023-06-14T17:08:25.455Z,32.03
2023-06-14T17:11:16.371Z,32.08
2023-06-14T17:14:07.540Z,31.95
2023-06-14T17:17:01.690Z,31.85
2023-06-14T17:19:53.716Z,31.70
2023-06-14T17:22:44.918Z,31.29
2023-06-14T17:25:34.444Z,30.79
2023-06-14T17:28:24.607Z,30.48
2023-06-14T17:31:18.320Z,30.21
2023-06-14T17:34:15.040Z,29.88
2023-06-14T17:37:08.428Z,29.46
2023-06-14T17:40:02.301Z,28.98
2023-06-14T17:42:53.526Z,28.71
2023-06-14T17:45:48.955Z,28.65
2023-06-14T17:48:41.617Z,28.48
2023-06-14T17:51:40.405Z,28.15
2023-06-14T17:54:29.508Z,27.90
2023-06-14T17:57:20.954Z,27.56
2023-06-14T18:00:13.241Z,27.25
2023-06-14T18:03:11.807Z,26.94
2023-06-14T18:06:06.760Z,26.94
2023-06-14T18:08:57.380Z,26.74
2023-06-14T18:11:48.366Z,26.47
2023-06-14T18:14:41.842Z,26.26
2023-06-14T18:17:34.191Z,26.12
2023-06-14T18:20:23.550Z,26.03
2023-06-14T18:23:13.964Z,25.75
2023-06-14T18:26:05.323Z,25.54
2023-06-14T18:29:02.807Z,25.58
2023-06-14T18:31:52.905Z,25.44
2023-06-14T18:34:41.997Z,25.22
2023-06-14T18:37:32.236Z,25.22
2023-06-14T18:40:25.147Z,24.92
2023-06-14T18:49:25.655Z,24.54
2023-06-14T18:52:15.868Z,24.40
2023-06-14T18:55:26.040Z,24.23
2023-06-14T18:58:30.227Z,24.02
2023-06-14T19:04:44.217Z,23.83
2023-06-14T19:08:14.921Z,23.53
2023-06-14T19:11:04.865Z,23.51
2023-06-14T19:14:00.761Z,23.35
2023-06-14T19:17:07.392Z,23.06
2023-06-14T19:19:59.544Z,22.98
2023-06-14T19:35:55.183Z,22.40
2023-06-14T19:38:44.489Z,22.27
2023-06-14T19:44:45.648Z,22.07
2023-06-14T19:47:34.303Z,21.94
2023-06-14T19:53:56.255Z,21.76
2023-06-14T19:56:56.900Z,21.71
2023-06-14T19:59:46.060Z,21.56
2023-06-14T20:02:43.382Z,21.49
2023-06-14T20:05:35.154Z,21.38
2023-06-14T20:08:25.578Z,21.23
2023-06-14T20:11:33.235Z,21.24
2023-06-14T20:14:26.112Z,21.12
2023-06-14T20:17:34.104Z,21.16
2023-06-14T20:20:29.154Z,21.06
2023-06-14T20:23:20.315Z,20.86
2023-06-14T20:26:11.829Z,20.81
2023-06-14T20:29:02.347Z,20.70
2023-06-14T20:31:52.366Z,20.62
2023-06-14T20:34:42.378Z,20.55
2023-06-14T20:37:31.372Z,20.42
2023-06-14T20:40:24.393Z,20.32
2023-06-14T20:43:13.709Z,20.23
2023-06-14T20:46:08.509Z,20.12
2023-06-14T20:48:56.885Z,20.06
2023-06-14T20:51:53.225Z,19.98
2023-06-14T20:54:45.956Z,19.91
2023-06-14T20:57:34.714Z,19.72
2023-06-14T21:00:25.030Z,19.63
2023-06-14T21:03:16.485Z,19.61
2023-06-14T21:06:08.224Z,19.48
2023-06-14T21:08:57.598Z,19.53
2023-06-14T21:11:45.778Z,19.46
2023-06-14T21:14:37.157Z,19.32
2023-06-14T21:17:28.647Z,19.25
2023-06-14T21:20:20.856Z,19.15
2023-06-14T21:23:11.000Z,19.05
2023-06-14T21:25:59.842Z,19.00
2023-06-14T21:28:48.712Z,18.94
2023-06-14T21:31:37.359Z,18.85
2023-06-14T21:34:26.926Z,18.78
2023-06-14T21:37:16.783Z,18.71
2023-06-14T21:40:05.296Z,18.67
2023-06-14T21:42:54.251Z,18.62
2023-06-14T21:45:43.064Z,18.62
2023-06-14T21:48:31.908Z,18.57
2023-06-14T21:51:21.474Z,18.58
2023-06-14T21:57:22.494Z,18.47
2023-06-14T22:00:15.004Z,18.38
2023-06-14T22:03:04.536Z,18.30
2023-06-14T22:05:52.991Z,18.21
2023-06-14T22:08:42.722Z,18.17
2023-06-14T22:11:35.346Z,18.10
2023-06-14T22:14:25.789Z,18.04
2023-06-14T22:17:14.667Z,17.98
2023-06-14T22:20:06.805Z,17.91
2023-06-14T22:22:56.788Z,17.84
2023-06-14T22:25:46.230Z,17.84
2023-06-14T22:28:46.796Z,17.75
2023-06-14T22:31:38.546Z,17.67
2023-06-14T22:34:27.180Z,17.61
2023-06-14T22:37:19.439Z,17.55
2023-06-14T22:40:12.685Z,17.47
2023-06-14T22:43:01.570Z,17.41
2023-06-14T22:45:52.754Z,17.35
2023-06-14T22:48:47.007Z,17.31
2023-06-14T22:51:39.163Z,17.25
2023-06-14T22:54:31.275Z,17.19
2023-06-14T22:57:21.540Z,17.13
2023-06-14T23:00:12.949Z,17.06
2023-06-14T23:03:05.157Z,16.96
2023-06-14T23:05:54.320Z,16.87
2023-06-14T23:08:45.626Z,16.79
2023-06-14T23:11:34.793Z,16.73
2023-06-14T23:14:25.928Z,16.67
2023-06-14T23:17:14.615Z,16.63
2023-06-14T23:20:09.371Z,16.54
2023-06-14T23:22:58.672Z,16.49
2023-06-14T23:25:49.610Z,16.43
2023-06-14T23:28:38.606Z,16.36
2023-06-14T23:31:27.627Z,16.32
2023-06-14T23:34:16.223Z,16.26
2023-06-14T23:37:09.823Z,16.20
2023-06-14T23:39:57.792Z,16.10
2023-06-14T23:42:46.602Z,16.08
2023-06-14T23:45:35.743Z,16.01
2023-06-14T23:48:27.425Z,15.95
2023-06-14T23:51:16.775Z,15.91
2023-06-14T23:54:10.960Z,15.86
2023-06-14T23:57:01.760Z,15.80
2023-06-14T23:59:51.500Z,15.71
